Aviation Digital Data Service (ADDS)

Output produced by METARs form (2239 UTC 30 March 2017)
found at http://www.aviationweather.gov/adds/metars/
 
TAF SVBC 302200Z 3100/0100 10005KT 9999 SCT016 TX32/18Z TN24/08Z 
     BECMG 3100/3104 07005KT FEW016 SCT100
       
TAF SVMI 302200Z 3100/0100 14010KT 9999 SCT016 TX31/18Z TN23/09Z 
     BECMG 3100/3104 09005KT FEW016 SCT080
       
TAF SVMC 302200Z 3100/0100 18010KT 9999 BKN020 TX34/19Z TN23/09Z 
     BECMG 3100/3104 25005KT 9000 DZ
       
TAF SVMG 302200Z 3100/0100 12010KT 9999 FEW016 TX32/18Z TN24/09Z 
     BECMG 3100/3104 05005KT SCT016
       
TAF SVJC 302200Z 3100/0100 13015KT 9999 SCT020 TX34/19Z TN24/07Z 
     BECMG 3100/3104 07010KT 9000 DZ BKN020
       
TAF SVSA 302200Z 3100/0100 18010KT 9999 BKN020 TX33/19Z TN24/09Z 
     BECMG 3100/3104 20005KT 9000 DZ OVC020